Time;durP1;ratioP1;P1;durP2;ratioP2;P2;SDS_P1;SDS_P2;PMS_P1;PMS_P2;Temp;Humidity;BMP_temperature;BMP_pressure;BME280_temperature;BME280_humidity;BME280_pressure;Samples;Min_cycle;Max_cycle;Signal;HPM_P1;HPM_P2
2023/04/18 00:00:26;;;;;;;8.40;4.30;;;;;;;8.31;59.96;100242.91;105952;1250;70033;-73
2023/04/18 00:02:54;;;;;;;4.80;3.50;;;;;;;8.29;60.04;100240.37;105978;1256;73034;-73
2023/04/18 00:05:23;;;;;;;6.10;4.20;;;;;;;8.29;59.96;100238.59;106103;1254;60525;-74
2023/04/18 00:07:52;;;;;;;4.70;3.50;;;;;;;8.30;59.96;100236.23;105946;1251;60613;-72
2023/04/18 00:10:20;;;;;;;7.10;4.10;;;;;;;8.30;60.04;100235.69;106056;1254;74171;-73
2023/04/18 00:12:48;;;;;;;5.10;3.80;;;;;;;8.30;60.06;100231.45;106068;1251;70148;-73
2023/04/18 00:15:17;;;;;;;7.50;3.70;;;;;;;8.29;59.99;100234.90;106112;1251;72833;-72
2023/04/18 00:17:46;;;;;;;5.80;3.60;;;;;;;8.28;60.03;100232.58;106132;1250;60504;-74
2023/04/18 00:20:15;;;;;;;6.10;3.30;;;;;;;8.27;60.13;100232.20;106164;1250;60524;-74
2023/04/18 00:22:45;;;;;;;5.30;3.80;;;;;;;8.28;60.04;100231.32;105973;1250;73947;-74
2023/04/18 00:25:13;;;;;;;6.20;5.00;;;;;;;8.27;60.20;100228.20;105971;1251;70253;-73
2023/04/18 00:27:42;;;;;;;5.90;4.20;;;;;;;8.26;60.02;100231.27;106104;1254;73117;-73
2023/04/18 00:30:10;;;;;;;7.50;4.70;;;;;;;8.26;60.40;100231.98;105850;1251;60476;-75
2023/04/18 00:32:39;;;;;;;5.20;3.70;;;;;;;8.26;60.55;100238.14;105859;1250;60437;-75
2023/04/18 00:35:07;;;;;;;8.20;4.40;;;;;;;8.25;60.64;100235.62;105897;1251;74781;-74
2023/04/18 00:37:36;;;;;;;6.20;4.40;;;;;;;8.23;60.42;100236.90;105977;1251;70602;-75
2023/04/18 00:40:05;;;;;;;5.70;4.20;;;;;;;8.22;60.55;100236.95;105831;1251;73600;-75
2023/04/18 00:42:33;;;;;;;5.30;4.00;;;;;;;8.20;60.48;100235.34;106167;1250;60573;-72
2023/04/18 00:45:01;;;;;;;7.60;4.70;;;;;;;8.20;60.63;100232.06;106227;1256;61286;-73
2023/04/18 00:47:30;;;;;;;6.70;3.80;;;;;;;8.18;60.82;100233.81;106018;1254;73267;-75
2023/04/18 00:49:58;;;;;;;5.70;3.50;;;;;;;8.16;61.13;100232.77;105961;1250;70497;-72
2023/04/18 00:52:26;;;;;;;4.80;3.30;;;;;;;8.13;61.00;100230.55;105703;1257;72922;-72
2023/04/18 00:54:54;;;;;;;6.60;4.50;;;;;;;8.11;60.90;100226.04;106062;1250;60469;-75
2023/04/18 00:57:23;;;;;;;8.20;4.00;;;;;;;8.07;60.82;100231.42;105832;1258;60420;-73
2023/04/18 00:59:51;;;;;;;5.90;3.90;;;;;;;8.05;60.75;100226.02;105811;1250;73363;-73
2023/04/18 01:02:19;;;;;;;7.90;4.20;;;;;;;8.01;60.95;100225.95;105873;1250;71154;-73
2023/04/18 01:04:47;;;;;;;6.80;3.90;;;;;;;7.98;60.75;100222.91;105847;1257;72913;-73
2023/04/18 01:07:16;;;;;;;5.20;4.00;;;;;;;7.95;60.84;100224.23;105888;1250;60446;-72
2023/04/18 01:09:44;;;;;;;5.60;4.20;;;;;;;7.93;60.99;100222.14;106106;1251;60461;-72
2023/04/18 01:12:12;;;;;;;5.20;3.90;;;;;;;7.91;61.07;100222.38;106072;1250;73069;-72
2023/04/18 01:14:41;;;;;;;5.60;4.20;;;;;;;7.88;61.12;100220.28;106013;1251;70578;-72
2023/04/18 01:17:12;;;;;;;6.50;4.70;;;;;;;7.85;61.18;100221.39;106059;1251;71005;-73
2023/04/18 01:19:40;;;;;;;4.70;3.50;;;;;;;7.83;61.39;100222.70;105822;1251;402452;-73
2023/04/18 01:23:02;;;;;;;6.90;3.90;;;;;;;7.80;61.33;100217.63;102818;1294;599580;-75
2023/04/18 01:25:31;;;;;;;7.10;4.20;;;;;;;7.78;61.24;100219.30;104869;1273;59709;-72
2023/04/18 01:27:59;;;;;;;7.20;3.80;;;;;;;7.76;61.38;100219.41;105083;1267;61208;-72
2023/04/18 01:30:28;;;;;;;6.90;4.50;;;;;;;7.75;61.38;100220.27;104950;1268;71241;-72
2023/04/18 01:33:02;;;;;;;5.90;4.20;;;;;;;7.73;61.33;100220.05;105904;1257;72010;-71
2023/04/18 01:35:31;;;;;;;6.50;4.20;;;;;;;7.72;61.51;100221.76;105703;1259;162283;-72
2023/04/18 01:37:59;;;;;;;6.00;3.60;;;;;;;7.70;61.55;100221.02;105940;1253;59618;-73
2023/04/18 01:40:28;;;;;;;7.00;4.50;;;;;;;7.68;61.71;100218.01;105918;1254;61230;-73
2023/04/18 01:42:56;;;;;;;6.20;3.90;;;;;;;7.68;61.52;100216.77;105840;1254;71170;-72
2023/04/18 01:45:24;;;;;;;5.80;3.60;;;;;;;7.66;61.65;100217.98;105992;1255;71786;-75
2023/04/18 01:47:52;;;;;;;7.00;4.60;;;;;;;7.65;61.73;100217.27;105867;1253;70795;-74
2023/04/18 01:50:21;;;;;;;6.60;4.80;;;;;;;7.64;61.76;100212.05;105991;1253;59645;-74
2023/04/18 01:52:49;;;;;;;8.90;6.00;;;;;;;7.63;61.75;100218.30;105932;1253;61344;-73
2023/04/18 01:55:17;;;;;;;11.50;6.10;;;;;;;7.60;61.89;100213.41;105839;1253;72907;-73
2023/04/18 01:57:45;;;;;;;9.40;5.50;;;;;;;7.58;61.92;100213.77;105833;1259;69275;-73
2023/04/18 02:00:13;;;;;;;8.60;5.90;;;;;;;7.58;61.95;100213.33;105819;1253;73648;-71
2023/04/18 02:02:41;;;;;;;10.00;5.30;;;;;;;7.55;62.12;100209.70;105875;1254;61015;-71
2023/04/18 02:05:10;;;;;;;10.20;5.40;;;;;;;7.55;62.11;100215.33;105794;1254;60480;-73
2023/04/18 02:07:39;;;;;;;9.50;5.30;;;;;;;7.54;62.04;100208.70;105864;1253;72428;-75
2023/04/18 02:10:09;;;;;;;8.90;6.20;;;;;;;7.52;62.16;100210.09;105845;1253;69766;-74
2023/04/18 02:12:37;;;;;;;6.30;5.40;;;;;;;7.52;62.14;100208.77;105979;1260;72103;-72
2023/04/18 02:15:06;;;;;;;9.00;5.40;;;;;;;7.50;62.21;100203.40;105885;1253;60463;-74
2023/04/18 02:17:36;;;;;;;8.50;6.10;;;;;;;7.49;62.21;100203.01;106157;1253;61297;-74
2023/04/18 02:20:08;;;;;;;8.50;6.20;;;;;;;7.47;62.22;100199.84;105888;1253;71805;-75
2023/04/18 02:22:39;;;;;;;8.60;6.10;;;;;;;7.45;62.20;100206.65;105782;1254;69500;-74
2023/04/18 02:25:11;;;;;;;8.40;4.50;;;;;;;7.44;62.38;100202.92;105958;1254;72743;-74
2023/04/18 02:27:40;;;;;;;5.90;4.20;;;;;;;7.43;62.50;100205.62;105861;1254;60976;-72
2023/04/18 02:30:13;;;;;;;8.00;5.30;;;;;;;7.43;62.35;100209.02;105829;1257;61785;-75
2023/04/18 02:32:57;;;;;;;6.00;4.60;;;;;;;7.42;62.42;100205.06;105980;1254;73023;-74
2023/04/18 02:35:37;;;;;;;6.40;4.30;;;;;;;7.41;62.47;100208.42;105730;1254;71328;-74
2023/04/18 02:38:20;;;;;;;8.00;5.10;;;;;;;7.40;62.59;100207.85;105750;1254;72510;-74
2023/04/18 02:40:56;;;;;;;10.30;7.10;;;;;;;7.39;62.51;100210.34;105825;1254;59619;-73
2023/04/18 02:43:35;;;;;;;13.30;9.10;;;;;;;7.39;62.72;100210.95;105949;1256;59978;-74
2023/04/18 02:46:04;;;;;;;10.20;7.80;;;;;;;7.34;62.71;100203.10;105623;1254;71923;-72
2023/04/18 02:48:41;;;;;;;11.10;9.00;;;;;;;7.32;62.75;100202.00;105852;1258;69016;-74
2023/04/18 02:51:13;;;;;;;18.80;16.40;;;;;;;7.35;62.80;100208.97;105677;1260;73880;-73
2023/04/18 02:53:44;;;;;;;18.40;14.30;;;;;;;7.34;62.80;100209.05;105676;1260;59744;-75
2023/04/18 02:56:27;;;;;;;16.10;11.80;;;;;;;7.33;62.88;100206.90;105832;1254;59727;-75
2023/04/18 02:59:13;;;;;;;12.20;9.70;;;;;;;7.31;62.98;100206.67;105793;1254;72979;-73
2023/04/18 03:02:02;;;;;;;11.60;9.80;;;;;;;7.28;63.03;100206.90;105836;1258;71217;-73
2023/04/18 03:04:31;;;;;;;18.70;12.00;;;;;;;7.27;63.18;100205.44;105817;1257;71703;-73
2023/04/18 03:07:02;;;;;;;19.40;14.00;;;;;;;7.27;63.18;100204.59;105838;1257;59627;-74
2023/04/18 03:09:33;;;;;;;19.70;12.90;;;;;;;7.27;63.29;100203.36;105862;1254;61240;-74
2023/04/18 03:12:05;;;;;;;18.20;13.10;;;;;;;7.26;63.34;100198.63;105816;1253;73053;-75
2023/04/18 03:14:35;;;;;;;22.60;18.80;;;;;;;7.28;63.34;100201.85;105840;1254;71465;-73
2023/04/18 03:17:03;;;;;;;24.80;15.20;;;;;;;7.28;63.38;100199.89;105984;1253;72575;-73
2023/04/18 03:19:36;;;;;;;21.60;13.80;;;;;;;7.27;63.46;100204.20;105931;1257;60443;-74
2023/04/18 03:22:08;;;;;;;23.80;15.90;;;;;;;7.28;63.64;100207.25;105764;1253;59724;-74
2023/04/18 03:24:39;;;;;;;22.90;17.30;;;;;;;7.31;63.43;100204.63;105769;1257;73298;-71
2023/04/18 03:27:08;;;;;;;37.50;27.10;;;;;;;7.33;63.67;100208.66;105863;1253;70265;-74
2023/04/18 03:29:37;;;;;;;29.50;26.10;;;;;;;7.34;63.64;100208.35;105860;1258;72340;-73
2023/04/18 03:32:06;;;;;;;29.90;23.50;;;;;;;7.37;63.75;100207.08;105958;1253;60386;-73
2023/04/18 03:34:34;;;;;;;23.20;19.40;;;;;;;7.38;63.72;100211.52;106000;1253;61483;-75
2023/04/18 03:37:04;;;;;;;23.20;17.80;;;;;;;7.40;63.77;100211.02;105888;1253;72768;-71
2023/04/18 03:39:36;;;;;;;14.50;12.00;;;;;;;7.41;63.73;100211.39;105994;1253;71673;-73
2023/04/18 03:42:04;;;;;;;16.90;8.80;;;;;;;7.42;63.77;100213.96;105815;1253;72525;-76
2023/04/18 03:44:34;;;;;;;11.50;7.50;;;;;;;7.45;63.58;100215.00;105925;1256;59646;-73
2023/04/18 03:47:03;;;;;;;12.60;7.90;;;;;;;7.46;63.59;100211.32;105962;1258;61503;-77
2023/04/18 03:49:31;;;;;;;10.70;6.90;;;;;;;7.48;63.70;100213.64;105857;1254;72757;-74
2023/04/18 03:52:00;;;;;;;12.00;7.50;;;;;;;7.51;63.72;100213.59;105932;1252;68657;-72
2023/04/18 03:54:28;;;;;;;11.90;7.70;;;;;;;7.53;63.57;100216.06;105862;1254;71486;-75
2023/04/18 03:56:58;;;;;;;22.10;10.80;;;;;;;7.56;63.60;100217.21;105849;1253;59772;-73
2023/04/18 03:59:26;;;;;;;18.80;11.10;;;;;;;7.57;63.62;100215.69;105947;1256;59612;-73
2023/04/18 04:01:54;;;;;;;16.40;10.80;;;;;;;7.61;63.55;100215.66;105722;1252;72865;-74
2023/04/18 04:04:23;;;;;;;22.80;11.90;;;;;;;7.63;63.62;100218.80;105884;1253;70416;-73
2023/04/18 04:06:51;;;;;;;25.90;11.60;;;;;;;7.64;63.50;100218.34;105715;1254;72875;-72
2023/04/18 04:09:20;;;;;;;24.50;11.30;;;;;;;7.66;63.54;100216.91;105500;1253;61656;-73
2023/04/18 04:11:49;;;;;;;26.00;14.10;;;;;;;7.67;63.56;100215.45;105974;1252;59707;-74
2023/04/18 04:14:18;;;;;;;30.80;13.50;;;;;;;7.68;63.68;100216.12;105762;1253;73057;-74
2023/04/18 04:16:46;;;;;;;29.90;14.60;;;;;;;7.70;63.65;100217.32;105809;1253;68807;-71
2023/04/18 04:19:16;;;;;;;19.30;12.40;;;;;;;7.73;63.69;100216.92;105770;1259;73438;-75
2023/04/18 04:21:53;;;;;;;21.40;12.20;;;;;;;7.76;63.72;100213.31;105576;1253;59712;-71
2023/04/18 04:24:21;;;;;;;15.90;9.50;;;;;;;7.78;63.76;100213.27;105884;1254;61285;-70
2023/04/18 04:26:51;;;;;;;14.10;8.30;;;;;;;7.81;63.73;100212.98;105729;1258;72186;-70
2023/04/18 04:29:22;;;;;;;12.10;7.70;;;;;;;7.84;63.73;100221.36;105860;1255;70316;-73
2023/04/18 04:31:51;;;;;;;13.60;8.70;;;;;;;7.85;63.61;100214.17;105803;1253;71982;-74
2023/04/18 04:34:27;;;;;;;14.40;7.70;;;;;;;7.89;63.65;100218.13;105936;1253;61014;-73
2023/04/18 04:36:55;;;;;;;14.00;8.50;;;;;;;7.92;63.58;100213.98;105856;1253;60599;-72
2023/04/18 04:39:24;;;;;;;12.10;8.00;;;;;;;7.96;63.74;100213.04;105827;1253;72655;-71
2023/04/18 04:42:12;;;;;;;13.90;8.20;;;;;;;8.02;63.43;100210.92;105637;1253;71731;-73
2023/04/18 04:44:49;;;;;;;11.60;7.00;;;;;;;8.07;63.42;100210.27;105832;1254;73667;-75
2023/04/18 04:47:18;;;;;;;16.60;8.60;;;;;;;8.12;63.39;100211.05;105943;1253;59601;-74
2023/04/18 04:49:46;;;;;;;14.30;8.60;;;;;;;8.16;63.42;100213.69;105846;1253;60764;-73
2023/04/18 04:52:14;;;;;;;15.50;8.70;;;;;;;8.21;63.18;100213.95;105863;1253;71254;-72
2023/04/18 04:54:44;;;;;;;16.60;9.40;;;;;;;8.27;63.20;100214.13;105913;1257;69908;-75
2023/04/18 04:57:14;;;;;;;16.20;9.80;;;;;;;8.35;63.08;100215.86;105824;1253;73778;-73
2023/04/18 04:59:42;;;;;;;13.80;9.00;;;;;;;8.42;63.06;100219.64;105798;1253;59931;-72
2023/04/18 05:02:11;;;;;;;14.60;9.60;;;;;;;8.50;62.88;100224.04;105781;1253;60706;-72
2023/04/18 05:04:39;;;;;;;16.90;10.90;;;;;;;8.58;62.50;100224.13;105915;1256;73708;-72
2023/04/18 05:07:07;;;;;;;17.20;11.80;;;;;;;8.66;62.60;100226.73;105960;1253;71622;-73
2023/04/18 05:09:35;;;;;;;15.40;11.30;;;;;;;8.73;62.23;100224.14;105877;1253;72328;-73
2023/04/18 05:12:03;;;;;;;18.40;10.90;;;;;;;8.82;61.86;100226.15;105931;1253;59648;-74
2023/04/18 05:14:32;;;;;;;13.90;10.70;;;;;;;8.91;61.45;100227.94;105873;1253;61240;-73
2023/04/18 05:17:00;;;;;;;14.00;9.80;;;;;;;9.01;61.37;100226.80;105936;1254;72936;-74
2023/04/18 05:19:28;;;;;;;14.20;8.00;;;;;;;9.11;61.11;100228.55;105885;1253;70061;-76
2023/04/18 05:21:56;;;;;;;10.80;5.70;;;;;;;9.19;60.55;100222.09;105882;1253;72727;-72
2023/04/18 05:24:24;;;;;;;7.50;5.80;;;;;;;9.29;60.19;100218.63;105915;1253;59639;-72
2023/04/18 05:26:52;;;;;;;7.30;5.00;;;;;;;9.40;59.85;100217.11;105954;1253;60601;-72
2023/04/18 05:29:20;;;;;;;6.10;4.70;;;;;;;9.50;59.10;100220.00;105815;1258;73843;-73
2023/04/18 05:31:49;;;;;;;9.90;5.30;;;;;;;9.58;58.90;100228.92;106092;1257;68405;-71
2023/04/18 05:34:17;;;;;;;7.80;4.70;;;;;;;9.66;58.93;100231.36;105644;1254;71861;-72
2023/04/18 05:36:46;;;;;;;8.70;4.70;;;;;;;9.73;58.56;100230.66;105884;1257;60543;-70
2023/04/18 05:39:15;;;;;;;9.50;4.80;;;;;;;9.80;58.57;100228.58;105614;1257;61619;-73
2023/04/18 05:41:43;;;;;;;9.00;4.70;;;;;;;9.87;58.27;100226.52;105419;1259;74081;-71
2023/04/18 05:44:12;;;;;;;10.10;5.20;;;;;;;9.92;58.24;100227.73;105579;1253;70464;-72
2023/04/18 05:46:40;;;;;;;8.40;4.90;;;;;;;9.98;58.01;100225.23;105680;1257;73933;-72
2023/04/18 05:49:08;;;;;;;8.20;5.00;;;;;;;10.03;57.79;100222.79;105908;1253;60531;-74
2023/04/18 05:51:36;;;;;;;7.80;5.10;;;;;;;10.07;57.54;100219.86;105887;1253;60365;-75
2023/04/18 05:54:05;;;;;;;5.80;4.80;;;;;;;10.11;57.44;100221.05;105944;1253;73213;-75
2023/04/18 05:56:33;;;;;;;9.60;4.90;;;;;;;10.18;57.62;100221.45;105926;1254;68286;-75
2023/04/18 05:59:01;;;;;;;6.10;4.90;;;;;;;10.27;57.40;100225.02;105892;1253;72836;-73
2023/04/18 06:01:29;;;;;;;10.90;5.30;;;;;;;10.36;57.52;100226.80;105898;1253;61366;-74
2023/04/18 06:03:57;;;;;;;8.30;4.30;;;;;;;10.48;57.53;100220.10;105599;1254;60460;-71
2023/04/18 06:06:26;;;;;;;6.50;4.60;;;;;;;10.61;57.09;100227.95;105691;1258;74784;-74
2023/04/18 06:08:54;;;;;;;7.70;5.20;;;;;;;10.73;56.59;100221.73;105830;1253;71598;-74
2023/04/18 06:11:22;;;;;;;9.10;5.20;;;;;;;10.88;56.35;100218.80;105808;1254;72270;-74
2023/04/18 06:13:50;;;;;;;11.70;4.90;;;;;;;11.05;56.35;100218.16;105779;1254;60538;-74
2023/04/18 06:16:19;;;;;;;8.70;4.80;;;;;;;11.21;56.04;100217.83;105813;1258;60527;-70
2023/04/18 06:18:47;;;;;;;15.20;5.00;;;;;;;11.37;55.54;100217.59;105859;1253;74926;-72
2023/04/18 06:21:15;;;;;;;8.00;4.90;;;;;;;11.51;55.29;100218.45;105513;1253;70532;-73
2023/04/18 06:23:43;;;;;;;10.70;4.60;;;;;;;11.64;54.68;100214.99;105859;1257;71819;-73
2023/04/18 06:26:11;;;;;;;8.60;5.40;;;;;;;11.73;54.04;100216.30;105828;1253;60416;-74
2023/04/18 06:28:39;;;;;;;9.00;5.50;;;;;;;11.81;53.70;100215.09;105799;1253;61543;-73
2023/04/18 06:31:08;;;;;;;10.70;5.40;;;;;;;11.91;53.55;100217.25;105834;1258;72854;-74
2023/04/18 06:33:36;;;;;;;8.60;4.90;;;;;;;12.02;53.35;100217.54;105893;1253;69812;-75
2023/04/18 06:36:06;;;;;;;8.10;5.30;;;;;;;12.10;52.99;100217.10;105850;1253;72098;-72
2023/04/18 06:38:34;;;;;;;11.40;5.50;;;;;;;12.19;52.75;100220.30;105906;1253;62093;-73
2023/04/18 06:41:02;;;;;;;8.90;5.50;;;;;;;12.28;52.67;100219.86;105832;1253;60601;-72
2023/04/18 06:43:30;;;;;;;8.00;6.10;;;;;;;12.40;52.40;100218.69;105802;1254;73681;-74
2023/04/18 06:45:59;;;;;;;10.10;5.60;;;;;;;12.55;52.10;100220.64;105799;1255;71216;-73
2023/04/18 06:48:28;;;;;;;9.70;5.30;;;;;;;12.68;51.33;100216.60;105914;1253;73885;-75
2023/04/18 06:50:56;;;;;;;8.00;4.80;;;;;;;12.79;50.65;100216.17;105985;1253;60414;-73
2023/04/18 06:53:24;;;;;;;6.40;4.60;;;;;;;12.87;50.26;100216.85;106098;1253;61223;-73
2023/04/18 06:55:52;;;;;;;6.70;4.40;;;;;;;12.92;50.08;100219.30;105930;1257;73436;-73
2023/04/18 06:58:21;;;;;;;9.00;3.60;;;;;;;12.97;49.76;100220.89;105811;1253;71607;-74
2023/04/18 07:00:50;;;;;;;6.20;4.00;;;;;;;13.01;49.51;100221.38;105845;1253;71704;-73
2023/04/18 07:03:19;;;;;;;7.30;3.60;;;;;;;13.03;49.50;100219.40;106026;1255;60537;-74
2023/04/18 07:05:49;;;;;;;7.90;3.60;;;;;;;13.08;49.44;100216.52;105918;1253;61456;-76
2023/04/18 07:08:17;;;;;;;6.90;4.10;;;;;;;13.14;49.36;100221.83;105947;1253;72318;-76
2023/04/18 07:10:45;;;;;;;6.60;3.90;;;;;;;13.22;49.26;100222.89;105944;1258;70054;-75
2023/04/18 07:13:14;;;;;;;6.10;3.70;;;;;;;13.32;49.12;100217.50;105834;1253;73873;-75
2023/04/18 07:15:42;;;;;;;9.20;3.90;;;;;;;13.42;49.04;100211.76;105724;1253;60488;-75
2023/04/18 07:18:10;;;;;;;8.70;4.20;;;;;;;13.55;49.00;100215.48;105763;1257;61115;-74
2023/04/18 07:20:45;;;;;;;5.80;4.00;;;;;;;13.69;48.86;100222.04;105715;1259;72535;-73
2023/04/18 07:23:13;;;;;;;6.80;4.00;;;;;;;13.76;48.50;100219.95;105749;1257;70056;-73
2023/04/18 07:25:41;;;;;;;6.40;4.00;;;;;;;13.76;48.24;100219.12;105843;1257;73003;-73
2023/04/18 07:28:09;;;;;;;22.20;4.00;;;;;;;13.71;47.92;100215.71;105667;1253;60624;-73
2023/04/18 07:30:37;;;;;;;6.00;3.70;;;;;;;13.69;48.41;100213.98;105784;1253;61349;-74
2023/04/18 07:33:06;;;;;;;6.30;3.70;;;;;;;13.72;48.46;100214.59;105926;1253;74124;-74
2023/04/18 07:35:34;;;;;;;9.30;3.70;;;;;;;13.76;48.65;100214.27;105850;1253;69797;-74
2023/04/18 07:38:03;;;;;;;9.60;4.10;;;;;;;13.79;48.59;100214.30;105881;1253;72994;-73
2023/04/18 07:40:31;;;;;;;7.20;3.60;;;;;;;13.84;48.65;100218.60;105923;1253;61424;-75
2023/04/18 07:42:59;;;;;;;12.30;4.60;;;;;;;13.90;48.44;100217.86;105894;1253;61354;-74
2023/04/18 07:45:27;;;;;;;6.90;3.50;;;;;;;13.91;48.11;100216.15;105936;1253;73837;-73
2023/04/18 07:47:55;;;;;;;6.10;3.70;;;;;;;13.85;48.13;100210.58;105833;1253;69077;-73
2023/04/18 07:50:23;;;;;;;5.90;3.90;;;;;;;13.87;48.21;100210.56;105749;1258;73013;-75
2023/04/18 07:52:51;;;;;;;8.10;4.00;;;;;;;13.92;48.27;100215.51;105851;1258;60513;-74
2023/04/18 07:55:20;;;;;;;5.20;3.40;;;;;;;14.00;48.09;100218.00;105987;1253;60474;-74
2023/04/18 07:57:49;;;;;;;8.00;4.10;;;;;;;14.08;48.09;100217.16;105887;1253;72984;-75
2023/04/18 08:00:17;;;;;;;7.30;3.70;;;;;;;14.19;48.02;100220.36;105767;1253;71023;-73
2023/04/18 08:02:45;;;;;;;7.80;4.00;;;;;;;14.30;48.05;100215.70;105758;1253;72727;-75
2023/04/18 08:05:14;;;;;;;7.40;4.60;;;;;;;14.40;47.72;100214.88;105665;1261;60731;-76
2023/04/18 08:07:42;;;;;;;11.90;4.20;;;;;;;14.52;47.53;100211.69;106097;1255;61274;-74
2023/04/18 08:10:10;;;;;;;9.10;4.10;;;;;;;14.61;47.35;100211.11;106019;1253;73609;-75
2023/04/18 08:12:39;;;;;;;11.20;3.80;;;;;;;14.70;47.51;100206.28;105921;1254;70910;-75
2023/04/18 08:15:07;;;;;;;9.10;3.90;;;;;;;14.80;47.20;100208.05;105901;1253;72068;-75
2023/04/18 08:17:37;;;;;;;10.70;3.80;;;;;;;14.82;46.98;100209.95;105840;1253;60477;-75
2023/04/18 08:20:06;;;;;;;8.50;4.10;;;;;;;14.86;47.10;100210.15;105992;1253;60644;-75
2023/04/18 08:22:34;;;;;;;6.90;3.50;;;;;;;14.89;46.88;100202.49;105730;1253;74033;-74
2023/04/18 08:25:17;;;;;;;8.40;3.40;;;;;;;14.89;46.94;100201.02;105752;1258;69461;-76
2023/04/18 08:27:45;;;;;;;9.20;5.30;;;;;;;14.88;46.84;100205.77;105867;1254;73856;-75
2023/04/18 08:30:13;;;;;;;8.70;3.90;;;;;;;14.86;46.89;100203.00;106089;1256;60534;-74
2023/04/18 08:32:41;;;;;;;5.50;3.60;;;;;;;14.81;46.83;100200.70;105913;1256;60419;-73
2023/04/18 08:35:09;;;;;;;9.10;4.40;;;;;;;14.71;46.65;100199.95;105951;1253;71513;-74
2023/04/18 08:37:37;;;;;;;10.60;3.80;;;;;;;14.57;47.01;100205.20;105898;1257;70311;-76
2023/04/18 08:40:06;;;;;;;11.10;3.80;;;;;;;14.45;47.20;100203.96;105990;1253;72347;-76
2023/04/18 08:42:35;;;;;;;19.10;5.00;;;;;;;14.35;47.34;100205.83;105935;1253;60689;-76
2023/04/18 08:45:04;;;;;;;11.70;3.50;;;;;;;14.24;47.38;100204.23;105888;1253;60440;-74
2023/04/18 08:47:34;;;;;;;14.60;3.90;;;;;;;14.17;47.55;100201.56;105869;1253;73756;-75
2023/04/18 08:50:02;;;;;;;9.20;3.70;;;;;;;14.12;47.50;100199.75;105966;1253;69759;-73
2023/04/18 08:52:31;;;;;;;9.40;4.20;;;;;;;14.04;47.61;100201.85;106050;1253;71690;-74
2023/04/18 08:55:01;;;;;;;11.40;3.80;;;;;;;13.94;47.75;100197.80;105848;1253;60443;-75
2023/04/18 08:57:30;;;;;;;8.30;3.20;;;;;;;13.96;47.92;100199.35;105874;1253;60478;-75
2023/04/18 09:00:01;;;;;;;11.20;3.50;;;;;;;14.03;47.88;100192.28;105981;1253;71941;-75
2023/04/18 09:02:41;;;;;;;6.10;3.60;;;;;;;14.11;47.66;100187.61;105712;1253;69765;-74
2023/04/18 09:05:15;;;;;;;9.60;4.10;;;;;;;14.24;47.53;100189.80;105794;1257;70743;-75
2023/04/18 09:07:43;;;;;;;;;;;;;;;14.39;47.00;100186.45;106026;1253;60584;-74
2023/04/18 09:10:12;;;;;;;9.60;3.60;;;;;;;14.54;47.24;100188.66;105851;1253;60493;-73
2023/04/18 09:12:50;;;;;;;8.30;4.10;;;;;;;14.79;47.28;100179.38;105804;1253;74090;-75
2023/04/18 09:15:22;;;;;;;7.20;3.30;;;;;;;15.21;46.57;100176.16;105974;1258;70545;-72
2023/04/18 09:17:53;;;;;;;8.70;4.30;;;;;;;15.61;46.14;100172.31;105879;1254;71780;-74
2023/04/18 09:20:36;;;;;;;8.10;4.40;;;;;;;15.97;45.70;100164.06;105936;1253;60425;-75
2023/04/18 09:23:09;;;;;;;6.30;4.00;;;;;;;16.30;45.10;100166.68;105777;1255;60992;-73
2023/04/18 09:25:43;;;;;;;7.70;3.60;;;;;;;16.51;44.55;100161.91;105923;1258;73894;-72
2023/04/18 09:28:28;;;;;;;6.50;3.70;;;;;;;16.58;44.15;100166.33;105898;1257;68511;-72
2023/04/18 09:30:58;;;;;;;11.20;4.10;;;;;;;16.63;44.22;100167.31;105977;1253;71820;-74
2023/04/18 09:33:31;;;;;;;8.40;4.30;;;;;;;16.63;44.08;100166.94;105927;1253;60484;-74
2023/04/18 09:36:17;;;;;;;5.50;3.50;;;;;;;16.61;44.06;100164.70;105990;1254;60495;-74
2023/04/18 09:38:45;;;;;;;10.40;4.40;;;;;;;16.55;44.01;100163.17;105923;1253;73614;-74
2023/04/18 09:41:16;;;;;;;8.40;3.70;;;;;;;16.51;44.29;100163.36;105889;1253;71359;-75
2023/04/18 09:43:48;;;;;;;5.90;3.90;;;;;;;16.50;44.32;100162.56;106091;1256;70989;-74
2023/04/18 09:46:21;;;;;;;10.80;4.50;;;;;;;16.47;44.33;100163.08;105999;1253;60443;-76
2023/04/18 09:48:49;;;;;;;7.80;3.50;;;;;;;16.44;44.56;100163.44;105994;1253;60432;-76
2023/04/18 09:51:17;;;;;;;4.40;3.60;;;;;;;16.56;44.26;100161.31;105975;1253;74110;-75
2023/04/18 09:53:49;;;;;;;8.10;3.90;;;;;;;16.73;43.70;100156.17;105849;1253;69281;-75
2023/04/18 09:56:27;;;;;;;9.50;3.70;;;;;;;16.88;43.47;100154.09;105899;1253;73406;-75
2023/04/18 09:58:56;;;;;;;4.10;3.20;;;;;;;17.08;42.89;100151.55;105749;1253;60446;-76
2023/04/18 10:01:27;;;;;;;7.50;3.20;;;;;;;17.28;42.44;100144.59;105865;1253;60332;-72
2023/04/18 10:03:55;;;;;;;5.80;3.50;;;;;;;17.49;42.07;100143.57;105914;1257;74142;-74
2023/04/18 10:06:23;;;;;;;8.80;3.70;;;;;;;17.75;41.95;100141.25;105732;1253;69656;-75
2023/04/18 10:08:51;;;;;;;3.60;2.80;;;;;;;17.99;41.29;100143.32;105736;1253;71242;-74
2023/04/18 10:11:20;;;;;;;5.00;3.60;;;;;;;18.13;41.07;100143.98;105729;1253;60775;-74
2023/04/18 10:13:49;;;;;;;5.50;3.20;;;;;;;18.23;40.49;100140.19;105907;1255;61687;-75
2023/04/18 10:16:17;;;;;;;5.00;3.10;;;;;;;18.29;39.94;100136.72;105850;1253;72568;-75
2023/04/18 10:18:45;;;;;;;7.00;3.60;;;;;;;18.27;39.92;100133.16;105702;1253;69668;-75
2023/04/18 10:21:14;;;;;;;6.70;3.00;;;;;;;18.22;40.19;100133.75;105754;1253;72876;-74
2023/04/18 10:23:42;;;;;;;7.40;2.70;;;;;;;18.16;39.97;100132.60;105739;1253;60846;-72
2023/04/18 10:26:10;;;;;;;7.90;3.10;;;;;;;18.02;39.71;100131.28;105863;1255;60537;-74
2023/04/18 10:28:53;;;;;;;5.40;2.50;;;;;;;17.85;39.23;100138.02;105804;1253;73359;-74
2023/04/18 10:31:22;;;;;;;6.20;2.40;;;;;;;17.61;38.81;100135.61;105813;1253;70778;-74
2023/04/18 10:33:57;;;;;;;7.40;2.80;;;;;;;17.35;38.69;100130.40;105912;1255;72253;-71
2023/04/18 10:36:29;;;;;;;6.20;3.00;;;;;;;17.11;39.03;100136.27;105909;1256;60551;-70
2023/04/18 10:39:02;;;;;;;7.60;2.60;;;;;;;16.91;39.39;100138.70;105611;1256;61203;-75
2023/04/18 10:41:32;;;;;;;8.30;3.00;;;;;;;16.79;39.51;100137.60;105913;1256;73427;-75
2023/04/18 10:44:20;;;;;;;6.50;2.60;;;;;;;16.69;39.74;100134.00;105902;1256;69978;-74
2023/04/18 10:46:51;;;;;;;7.30;3.00;;;;;;;16.55;40.22;100143.81;106049;1257;72375;-75
2023/04/18 10:49:30;;;;;;;4.70;2.60;;;;;;;16.51;39.90;100141.66;105943;1258;60531;-74
2023/04/18 10:52:00;;;;;;;7.20;2.90;;;;;;;16.48;39.74;100141.67;106009;1253;60890;-74
2023/04/18 10:54:42;;;;;;;8.30;3.00;;;;;;;16.51;40.39;100143.30;105886;1253;74350;-75
2023/04/18 10:57:11;;;;;;;6.90;2.60;;;;;;;16.61;40.69;100140.72;105955;1254;70095;-75
2023/04/18 10:59:41;;;;;;;5.40;2.80;;;;;;;16.69;40.66;100140.27;105940;1253;71691;-74
2023/04/18 11:02:24;;;;;;;6.90;2.70;;;;;;;16.73;40.75;100135.83;105955;1253;60541;-74
2023/04/18 11:04:57;;;;;;;5.30;3.00;;;;;;;16.73;41.18;100137.64;105959;1256;60436;-75
2023/04/18 11:07:35;;;;;;;6.70;2.40;;;;;;;16.70;41.24;100142.88;105976;1253;73191;-77
2023/04/18 11:10:07;;;;;;;7.00;2.50;;;;;;;16.56;40.48;100143.38;105942;1253;69704;-75
2023/04/18 11:12:38;;;;;;;6.50;2.30;;;;;;;16.37;40.04;100146.68;105830;1253;72999;-75
2023/04/18 11:15:11;;;;;;;14.60;2.20;;;;;;;16.16;40.03;100144.77;106006;1253;60554;-75
2023/04/18 11:17:39;;;;;;;7.70;3.10;;;;;;;15.93;39.99;100148.48;105918;1258;61001;-74
2023/04/18 11:20:13;;;;;;;4.80;2.30;;;;;;;15.69;41.27;100149.02;106061;1254;73887;-73
2023/04/18 11:22:48;;;;;;;8.40;2.60;;;;;;;15.40;41.95;100148.38;105750;1253;69598;-75
2023/04/18 11:25:17;;;;;;;2.70;2.10;;;;;;;15.15;42.62;100142.95;106019;1253;72356;-75
2023/04/18 11:27:46;;;;;;;7.60;3.30;;;;;;;14.89;43.68;100147.86;106066;1253;60477;-75
2023/04/18 11:30:15;;;;;;;5.80;2.50;;;;;;;14.68;44.38;100139.73;106113;1259;60565;-75